Time;durP1;ratioP1;P1;durP2;ratioP2;P2;SDS_P1;SDS_P2;PMS_P1;PMS_P2;Temp;Humidity;BMP_temperature;BMP_pressure;BME280_temperature;BME280_humidity;BME280_pressure;Samples;Min_cycle;Max_cycle;Signal;HPM_P1;HPM_P2
2021/05/22 00:01:18;;;;;;;0.70;0.45;;;9.60;99.90;;;;;;5030964;28;20534;-74
2021/05/22 00:03:43;;;;;;;0.68;0.20;;;9.50;99.90;;;;;;5026052;28;20518;-75
2021/05/22 00:06:09;;;;;;;0.47;0.30;;;9.50;99.90;;;;;;5029060;28;20173;-73
2021/05/22 00:08:34;;;;;;;0.38;0.20;;;9.60;99.90;;;;;;5028868;28;20534;-74
2021/05/22 00:11:00;;;;;;;0.63;0.28;;;9.50;99.90;;;;;;5017407;28;20094;-74
2021/05/22 00:13:25;;;;;;;0.60;0.30;;;9.20;99.90;;;;;;5021805;28;20078;-74
2021/05/22 00:15:51;;;;;;;0.38;0.20;;;9.10;99.90;;;;;;5028877;28;20089;-74
2021/05/22 00:18:17;;;;;;;0.68;0.30;;;9.00;99.90;;;;;;5029462;28;20574;-74
2021/05/22 00:20:42;;;;;;;0.15;0.15;;;9.10;99.90;;;;;;5024712;28;20567;-75
2021/05/22 00:23:10;;;;;;;0.52;0.30;;;9.00;99.90;;;;;;5029584;28;20090;-74
2021/05/22 00:25:36;;;;;;;0.32;0.20;;;9.00;99.90;;;;;;5028599;28;20449;-74
2021/05/22 00:28:01;;;;;;;1.00;0.30;;;9.10;99.90;;;;;;5028731;28;20077;-74
2021/05/22 00:30:27;;;;;;;2.33;1.35;;;9.00;99.90;;;;;;5028396;28;20129;-75
2021/05/22 00:32:53;;;;;;;0.93;0.20;;;9.00;99.90;;;;;;5028869;28;20109;-74
2021/05/22 00:35:18;;;;;;;1.08;0.20;;;8.90;99.90;;;;;;5027558;28;20092;-74
2021/05/22 00:37:44;;;;;;;0.25;0.10;;;8.80;99.90;;;;;;5029103;28;20530;-74
2021/05/22 00:40:10;;;;;;;0.52;0.20;;;9.00;99.90;;;;;;5028378;28;20168;-74
2021/05/22 00:42:39;;;;;;;0.65;0.17;;;8.90;99.90;;;;;;5029237;28;20136;-74
2021/05/22 00:45:11;;;;;;;0.55;0.10;;;8.70;99.90;;;;;;5028512;28;20131;-74
2021/05/22 00:47:38;;;;;;;0.98;0.20;;;8.80;99.90;;;;;;5028499;28;20074;-74
2021/05/22 00:50:06;;;;;;;0.30;0.20;;;8.90;99.90;;;;;;5024471;28;20106;-74
2021/05/22 00:52:34;;;;;;;1.08;0.10;;;8.80;99.90;;;;;;5023640;28;20112;-74
2021/05/22 00:55:00;;;;;;;0.50;0.10;;;8.80;99.90;;;;;;5029820;28;20066;-74
2021/05/22 00:57:26;;;;;;;0.10;0.10;;;8.70;99.90;;;;;;5028074;28;20066;-75
2021/05/22 00:59:52;;;;;;;0.13;0.10;;;8.80;99.90;;;;;;5027693;28;20086;-74
2021/05/22 01:02:24;;;;;;;0.10;0.10;;;8.80;99.90;;;;;;5029018;28;20066;-75
2021/05/22 01:04:51;;;;;;;0.77;0.10;;;8.80;99.90;;;;;;5028731;28;20075;-75
2021/05/22 01:07:17;;;;;;;0.43;0.17;;;8.70;99.90;;;;;;5028590;28;20565;-74
2021/05/22 01:09:43;;;;;;;0.45;0.43;;;8.70;99.90;;;;;;5026286;28;20126;-73
2021/05/22 01:12:12;;;;;;;6.45;0.30;;;8.70;99.90;;;;;;5029467;28;20104;-74
2021/05/22 01:15:15;;;;;;;0.85;0.30;;;8.70;99.90;;;;;;5027051;28;20082;-75
2021/05/22 01:17:48;;;;;;;1.33;0.17;;;8.70;99.90;;;;;;4986487;28;20075;-73
2021/05/22 01:20:19;;;;;;;0.45;0.22;;;8.70;99.90;;;;;;5014760;28;20093;-75
2021/05/22 01:22:48;;;;;;;1.20;0.20;;;8.50;99.90;;;;;;5032242;28;20094;-73
2021/05/22 01:25:30;;;;;;;0.70;0.28;;;8.50;99.90;;;;;;5031906;28;20128;-75
2021/05/22 01:28:01;;;;;;;0.40;0.25;;;8.50;99.90;;;;;;5029085;28;20125;-74
2021/05/22 01:30:27;;;;;;;0.28;0.08;;;8.50;99.90;;;;;;5026495;28;20097;-75
2021/05/22 01:32:53;;;;;;;1.08;0.20;;;8.40;99.90;;;;;;5032538;28;20069;-74
2021/05/22 01:35:19;;;;;;;0.70;0.20;;;8.40;99.90;;;;;;5031552;28;20085;-77
2021/05/22 01:37:46;;;;;;;1.33;0.10;;;8.30;99.90;;;;;;5026742;28;20078;-74
2021/05/22 01:40:12;;;;;;;0.20;0.20;;;8.40;99.90;;;;;;5023647;28;20098;-73
2021/05/22 01:42:38;;;;;;;1.05;0.30;;;8.20;99.90;;;;;;5024602;28;20094;-73
2021/05/22 01:45:09;;;;;;;1.63;0.30;;;8.20;99.90;;;;;;5032033;28;20163;-74
2021/05/22 01:47:35;;;;;;;0.28;0.15;;;8.20;99.90;;;;;;5030474;28;20074;-73
2021/05/22 01:50:03;;;;;;;0.38;0.17;;;8.10;99.90;;;;;;5032011;28;20152;-75
2021/05/22 01:52:33;;;;;;;0.95;0.20;;;8.10;99.90;;;;;;5032440;28;20600;-74
2021/05/22 01:54:59;;;;;;;1.60;0.10;;;8.10;99.90;;;;;;5046903;28;20085;-74
2021/05/22 01:57:25;;;;;;;0.28;0.10;;;8.20;99.90;;;;;;5028196;28;20070;-74
2021/05/22 01:59:51;;;;;;;0.93;0.15;;;8.10;99.90;;;;;;5028876;28;20086;-73
2021/05/22 02:02:20;;;;;;;0.65;0.20;;;8.10;99.90;;;;;;5030792;28;20116;-75
2021/05/22 02:04:48;;;;;;;1.35;0.15;;;8.30;99.90;;;;;;5023502;28;20073;-74
2021/05/22 02:09:49;;;;;;;0.17;0.10;;;8.20;99.90;;;;;;5022517;28;20106;-74
2021/05/22 02:12:15;;;;;;;0.30;0.20;;;8.00;99.90;;;;;;5005684;28;20337;-73
2021/05/22 02:14:43;;;;;;;0.63;0.20;;;8.10;99.90;;;;;;4992097;28;20129;-73
2021/05/22 02:17:13;;;;;;;0.50;0.10;;;8.10;99.90;;;;;;4991656;28;20079;-74
2021/05/22 02:19:42;;;;;;;0.10;0.10;;;8.00;99.90;;;;;;4993130;28;20098;-74
2021/05/22 02:22:12;;;;;;;0.20;0.10;;;8.00;99.90;;;;;;4995451;28;20086;-74
2021/05/22 02:24:38;;;;;;;0.10;0.10;;;8.00;99.90;;;;;;4993609;28;20170;-73
2021/05/22 02:27:05;;;;;;;0.10;0.08;;;7.90;99.90;;;;;;4992269;28;20526;-74
2021/05/22 02:29:35;;;;;;;0.20;0.10;;;8.00;99.90;;;;;;5002979;28;20086;-74
2021/05/22 02:32:03;;;;;;;1.83;0.10;;;8.00;99.90;;;;;;4992241;28;20079;-74
2021/05/22 02:34:33;;;;;;;0.88;0.10;;;8.00;99.90;;;;;;4993318;28;20075;-74
2021/05/22 02:37:00;;;;;;;1.17;0.30;;;8.00;99.90;;;;;;4996131;28;20144;-74
2021/05/22 02:39:27;;;;;;;0.20;0.10;;;8.00;99.90;;;;;;5004605;28;20158;-74
2021/05/22 02:41:55;;;;;;;0.20;0.10;;;7.90;99.90;;;;;;4993907;28;20090;-73
2021/05/22 02:44:24;;;;;;;0.55;0.20;;;7.90;99.90;;;;;;5007718;28;20077;-74
2021/05/22 02:46:51;;;;;;;0.50;0.10;;;7.90;99.90;;;;;;4992170;28;20880;-73
2021/05/22 02:49:20;;;;;;;0.10;0.10;;;8.00;99.90;;;;;;5006747;28;20183;-73
2021/05/22 02:51:48;;;;;;;0.32;0.22;;;8.00;99.90;;;;;;4994990;28;20118;-74
2021/05/22 02:54:14;;;;;;;0.10;0.10;;;8.00;99.90;;;;;;4992671;28;20070;-74
2021/05/22 02:56:41;;;;;;;3.78;0.40;;;8.00;99.90;;;;;;4991959;28;20097;-74
2021/05/22 02:59:07;;;;;;;0.20;0.10;;;8.00;99.90;;;;;;4992637;28;20105;-74
2021/05/22 03:01:34;;;;;;;0.10;0.00;;;8.00;99.90;;;;;;4994196;28;20518;-74
2021/05/22 03:04:01;;;;;;;1.27;0.50;;;8.00;99.90;;;;;;4991871;28;20451;-74
2021/05/22 03:06:26;;;;;;;2.17;0.10;;;8.00;99.90;;;;;;4991947;28;20566;-74
2021/05/22 03:08:52;;;;;;;0.50;0.25;;;8.00;99.90;;;;;;5010718;28;20138;-74
2021/05/22 03:11:20;;;;;;;2.33;0.30;;;8.10;99.90;;;;;;4992218;28;20130;-74
2021/05/22 03:13:46;;;;;;;2.38;0.20;;;8.20;99.90;;;;;;4992129;28;20098;-74
2021/05/22 03:16:13;;;;;;;0.28;0.20;;;8.20;99.90;;;;;;5000924;28;20114;-74
2021/05/22 03:18:39;;;;;;;1.58;0.10;;;8.20;99.90;;;;;;4992705;28;20121;-73
2021/05/22 03:21:05;;;;;;;0.47;0.10;;;8.10;99.90;;;;;;5006695;28;20082;-74
2021/05/22 03:23:31;;;;;;;1.08;0.30;;;8.20;99.90;;;;;;4992832;28;20078;-74
2021/05/22 03:25:56;;;;;;;0.10;0.10;;;8.20;99.90;;;;;;4991625;28;20086;-74
2021/05/22 03:28:22;;;;;;;0.20;0.10;;;8.20;99.90;;;;;;4992746;28;20095;-74
2021/05/22 03:30:48;;;;;;;0.22;0.10;;;8.20;99.90;;;;;;5007153;28;20067;-74
2021/05/22 03:33:16;;;;;;;0.57;0.20;;;8.20;99.90;;;;;;4991891;28;20067;-74
2021/05/22 03:35:42;;;;;;;0.10;0.10;;;8.20;99.90;;;;;;4989951;28;20547;-74
2021/05/22 03:38:08;;;;;;;0.05;0.05;;;8.10;99.90;;;;;;5011372;28;20086;-74
2021/05/22 03:40:33;;;;;;;0.10;0.00;;;8.30;99.90;;;;;;5011084;28;20101;-74
2021/05/22 03:42:59;;;;;;;0.38;0.20;;;8.30;99.90;;;;;;5003774;28;20158;-74
2021/05/22 03:45:25;;;;;;;0.13;0.10;;;8.30;99.90;;;;;;4990642;28;20562;-73
2021/05/22 03:47:50;;;;;;;0.20;0.20;;;8.10;99.90;;;;;;4993426;28;20148;-74
2021/05/22 03:50:16;;;;;;;0.40;0.10;;;8.10;99.90;;;;;;4996625;28;20085;-74
2021/05/22 03:52:42;;;;;;;0.38;0.08;;;8.10;99.90;;;;;;4991495;28;20082;-74
2021/05/22 03:55:09;;;;;;;0.35;0.20;;;8.10;99.90;;;;;;4990933;28;20447;-73
2021/05/22 03:57:35;;;;;;;0.28;0.10;;;8.20;99.90;;;;;;5007391;28;20079;-74
2021/05/22 04:00:01;;;;;;;0.30;0.20;;;8.20;99.90;;;;;;5009471;28;20090;-74
2021/05/22 04:02:26;;;;;;;0.40;0.22;;;8.10;99.90;;;;;;4989975;28;20078;-74
2021/05/22 04:04:53;;;;;;;1.00;0.43;;;8.20;99.90;;;;;;5005982;28;20445;-74
2021/05/22 04:07:18;;;;;;;1.42;0.20;;;8.20;99.90;;;;;;4992403;28;20134;-74
2021/05/22 04:09:44;;;;;;;0.68;0.20;;;8.40;99.90;;;;;;5014625;28;20083;-74
2021/05/22 04:12:09;;;;;;;0.30;0.20;;;8.30;99.90;;;;;;5005432;28;20510;-74
2021/05/22 04:14:38;;;;;;;0.90;0.10;;;8.30;99.90;;;;;;4992016;28;21632;-74
2021/05/22 04:17:03;;;;;;;1.77;0.10;;;8.30;99.90;;;;;;5001455;28;20107;-73
2021/05/22 04:19:29;;;;;;;0.32;0.17;;;8.30;99.90;;;;;;5005378;28;20196;-73
2021/05/22 04:21:55;;;;;;;0.40;0.22;;;8.30;99.90;;;;;;5005286;28;20083;-74
2021/05/22 04:24:20;;;;;;;0.10;0.05;;;8.30;99.90;;;;;;4990585;28;20090;-74
2021/05/22 04:26:46;;;;;;;0.30;0.20;;;8.20;99.90;;;;;;4990103;28;20122;-74
2021/05/22 04:29:11;;;;;;;0.10;0.10;;;8.30;99.90;;;;;;4991298;28;20106;-74
2021/05/22 04:31:37;;;;;;;0.15;0.10;;;8.30;99.90;;;;;;5005779;28;20085;-74
2021/05/22 04:34:03;;;;;;;0.30;0.10;;;8.30;99.90;;;;;;4990842;28;20129;-74
2021/05/22 04:36:29;;;;;;;0.30;0.10;;;8.20;99.90;;;;;;4990904;28;20121;-73
2021/05/22 04:38:55;;;;;;;0.10;0.10;;;8.20;99.90;;;;;;4993734;28;20122;-73
2021/05/22 04:41:20;;;;;;;0.35;0.20;;;8.30;99.90;;;;;;4990155;28;20573;-74
2021/05/22 04:43:46;;;;;;;0.30;0.10;;;8.30;99.90;;;;;;5005288;28;20083;-74
2021/05/22 04:46:12;;;;;;;0.45;0.20;;;8.30;99.90;;;;;;4989573;28;20090;-74
2021/05/22 04:48:37;;;;;;;0.17;0.10;;;8.40;99.90;;;;;;4990561;28;20501;-74
2021/05/22 04:51:03;;;;;;;0.43;0.20;;;8.40;99.90;;;;;;5001703;28;20129;-74
2021/05/22 04:53:29;;;;;;;0.40;0.20;;;8.40;99.90;;;;;;4997039;28;20486;-74
2021/05/22 04:55:54;;;;;;;0.10;0.10;;;8.30;99.90;;;;;;4989611;28;20082;-74
2021/05/22 04:58:20;;;;;;;0.00;0.00;;;8.30;99.90;;;;;;4995933;28;20125;-74
2021/05/22 05:00:46;;;;;;;0.20;0.15;;;8.30;99.90;;;;;;4999215;28;20153;-74
2021/05/22 05:03:11;;;;;;;0.17;0.00;;;8.30;99.90;;;;;;5012346;28;20079;-74
2021/05/22 05:05:37;;;;;;;0.17;0.08;;;8.40;99.90;;;;;;4999617;28;20646;-74
2021/05/22 05:08:03;;;;;;;0.45;0.20;;;8.40;99.90;;;;;;4998757;28;20109;-74
2021/05/22 05:10:29;;;;;;;0.30;0.15;;;8.50;99.90;;;;;;5010458;28;20075;-74
2021/05/22 05:12:54;;;;;;;0.28;0.20;;;8.40;99.90;;;;;;5009924;28;20071;-74
2021/05/22 05:15:20;;;;;;;0.30;0.10;;;8.50;99.90;;;;;;5019026;28;20067;-74
2021/05/22 05:17:46;;;;;;;1.10;0.10;;;8.50;99.90;;;;;;5014835;28;20091;-74
2021/05/22 05:20:12;;;;;;;0.52;0.10;;;8.50;99.90;;;;;;4996285;28;20098;-74
2021/05/22 05:22:37;;;;;;;0.00;0.00;;;8.50;99.90;;;;;;5009694;28;20090;-74
2021/05/22 05:25:04;;;;;;;0.70;0.10;;;8.40;99.90;;;;;;4994845;28;20085;-73
2021/05/22 05:27:30;;;;;;;0.10;0.10;;;8.50;99.90;;;;;;5004708;28;20082;-73
2021/05/22 05:29:56;;;;;;;0.38;0.05;;;8.50;99.90;;;;;;5006706;28;20074;-73
2021/05/22 05:32:21;;;;;;;0.70;0.20;;;8.50;99.90;;;;;;5001582;28;20279;-74
2021/05/22 05:34:47;;;;;;;0.00;0.00;;;8.50;99.90;;;;;;4994678;28;20081;-74
2021/05/22 05:37:13;;;;;;;0.35;0.10;;;8.60;99.90;;;;;;4994971;28;20135;-74
2021/05/22 05:39:39;;;;;;;0.43;0.20;;;8.60;99.90;;;;;;4999072;28;20715;-75
2021/05/22 05:42:05;;;;;;;0.95;0.10;;;8.60;99.90;;;;;;5010088;28;20078;-74
2021/05/22 05:44:31;;;;;;;2.45;0.17;;;8.60;99.90;;;;;;5019668;28;20082;-74
2021/05/22 05:46:56;;;;;;;0.30;0.10;;;8.70;99.90;;;;;;4996698;28;20091;-74
2021/05/22 05:49:23;;;;;;;0.40;0.10;;;8.70;99.90;;;;;;4995020;28;20094;-74
2021/05/22 05:51:48;;;;;;;0.10;0.10;;;8.70;99.90;;;;;;4997871;28;20075;-74
2021/05/22 05:54:14;;;;;;;0.20;0.20;;;8.80;99.90;;;;;;5014882;28;20089;-73
2021/05/22 05:56:40;;;;;;;0.30;0.30;;;8.80;99.90;;;;;;5014868;28;20083;-73
2021/05/22 05:59:05;;;;;;;1.48;0.20;;;8.80;99.90;;;;;;5007520;28;20410;-74
2021/05/22 06:01:31;;;;;;;0.22;0.10;;;8.90;99.90;;;;;;4995641;28;20071;-73
2021/05/22 06:03:57;;;;;;;0.68;0.10;;;8.90;99.90;;;;;;5008621;28;20086;-73
2021/05/22 06:06:23;;;;;;;0.52;0.20;;;9.00;99.90;;;;;;4992541;28;20530;-74
2021/05/22 06:08:48;;;;;;;4.13;0.30;;;9.00;99.90;;;;;;5021076;28;20113;-73
2021/05/22 06:11:16;;;;;;;0.73;0.30;;;9.00;99.90;;;;;;5019079;28;20136;-74
2021/05/22 06:13:43;;;;;;;2.33;0.22;;;9.10;99.90;;;;;;5007905;28;20071;-74
2021/05/22 06:18:36;;;;;;;0.22;0.10;;;9.10;99.90;;;;;;5005772;28;20550;-74
2021/05/22 06:21:04;;;;;;;0.98;0.30;;;9.10;99.90;;;;;;5011339;28;20166;-74
2021/05/22 06:23:30;;;;;;;0.13;0.13;;;9.20;99.90;;;;;;4998087;28;20098;-73
2021/05/22 06:25:56;;;;;;;0.57;0.25;;;9.10;99.90;;;;;;5003569;28;20091;-74
2021/05/22 06:28:22;;;;;;;0.35;0.30;;;9.10;99.90;;;;;;5002856;28;20095;-73
2021/05/22 06:30:48;;;;;;;0.80;0.30;;;9.20;99.90;;;;;;5017691;28;20589;-74
2021/05/22 06:33:13;;;;;;;2.80;0.30;;;9.10;99.90;;;;;;5023416;28;20075;-74
2021/05/22 06:35:41;;;;;;;0.60;0.30;;;9.20;99.90;;;;;;5009864;28;20101;-74
2021/05/22 06:38:06;;;;;;;1.73;0.20;;;9.30;99.90;;;;;;5003228;28;20546;-75
2021/05/22 06:40:32;;;;;;;0.95;0.47;;;9.30;99.90;;;;;;4993255;28;20089;-74
2021/05/22 06:42:58;;;;;;;0.45;0.17;;;9.30;99.90;;;;;;5025100;28;20086;-75
2021/05/22 06:45:25;;;;;;;1.95;0.38;;;9.30;99.90;;;;;;5006828;28;20086;-76
2021/05/22 06:47:52;;;;;;;2.22;0.40;;;9.30;99.90;;;;;;5006902;28;20093;-73
2021/05/22 06:50:18;;;;;;;2.03;0.60;;;9.40;99.90;;;;;;5009033;28;20149;-74
2021/05/22 06:52:43;;;;;;;3.72;0.40;;;9.50;99.90;;;;;;4997100;28;20519;-74
2021/05/22 06:55:09;;;;;;;1.05;0.30;;;9.50;99.90;;;;;;5018719;28;20078;-73
2021/05/22 06:57:35;;;;;;;2.33;0.80;;;9.50;99.90;;;;;;5006576;28;20165;-75
2021/05/22 07:00:01;;;;;;;0.80;0.57;;;9.70;99.90;;;;;;4994817;28;20154;-73
2021/05/22 07:02:26;;;;;;;1.20;0.40;;;9.70;99.90;;;;;;4993466;28;20133;-73
2021/05/22 07:04:52;;;;;;;1.25;0.20;;;9.80;99.90;;;;;;4993221;28;20094;-73
2021/05/22 07:07:17;;;;;;;2.80;0.40;;;9.90;99.90;;;;;;4991705;28;20098;-73
2021/05/22 07:09:43;;;;;;;2.70;0.40;;;10.30;99.90;;;;;;4995589;28;20103;-73
2021/05/22 07:12:12;;;;;;;0.68;0.40;;;10.30;99.90;;;;;;5007194;28;20081;-75
2021/05/22 07:14:38;;;;;;;1.40;0.38;;;10.40;99.90;;;;;;4993308;28;20079;-74
2021/05/22 07:17:04;;;;;;;1.98;0.40;;;10.50;99.90;;;;;;4991220;28;20168;-73
2021/05/22 07:19:29;;;;;;;1.58;0.38;;;10.60;99.90;;;;;;4996094;28;20097;-73
2021/05/22 07:21:56;;;;;;;2.78;0.50;;;10.60;99.90;;;;;;5008726;28;20079;-74
2021/05/22 07:24:22;;;;;;;1.35;0.60;;;10.70;99.90;;;;;;5021138;28;20082;-74
2021/05/22 07:26:48;;;;;;;2.30;0.60;;;10.90;99.90;;;;;;4996349;28;20152;-74
2021/05/22 07:29:15;;;;;;;2.38;0.50;;;11.10;99.90;;;;;;5006461;28;20137;-74
2021/05/22 07:31:42;;;;;;;3.38;0.38;;;11.20;99.90;;;;;;4999385;28;20639;-75
2021/05/22 07:34:09;;;;;;;0.82;0.50;;;11.10;99.90;;;;;;5005660;28;20158;-73
2021/05/22 07:36:35;;;;;;;4.53;0.52;;;11.20;99.90;;;;;;5005022;28;20760;-73
2021/05/22 07:39:02;;;;;;;0.80;0.30;;;11.30;99.90;;;;;;4994623;28;20186;-73
2021/05/22 07:41:27;;;;;;;1.52;0.40;;;11.50;99.90;;;;;;4992500;28;20090;-73
2021/05/22 07:43:53;;;;;;;1.23;0.50;;;11.70;99.90;;;;;;5003955;28;20079;-74
2021/05/22 07:46:18;;;;;;;1.90;0.38;;;11.80;99.90;;;;;;4990952;28;20086;-74
2021/05/22 07:48:44;;;;;;;1.98;0.50;;;11.80;99.90;;;;;;4997744;28;20181;-74
2021/05/22 07:51:10;;;;;;;1.80;0.68;;;11.60;99.90;;;;;;5007356;28;20074;-76
2021/05/22 07:53:35;;;;;;;3.40;1.42;;;11.80;99.90;;;;;;4998962;28;20562;-76
2021/05/22 07:56:01;;;;;;;2.50;0.50;;;12.00;99.90;;;;;;4995776;28;20102;-76
2021/05/22 07:58:26;;;;;;;1.95;0.40;;;11.90;99.90;;;;;;4999377;28;20164;-75
2021/05/22 08:00:52;;;;;;;1.38;0.50;;;11.90;99.90;;;;;;4997222;28;20098;-76
2021/05/22 08:03:17;;;;;;;3.05;0.50;;;12.10;99.90;;;;;;4998176;28;20079;-75
2021/05/22 08:05:43;;;;;;;1.45;0.50;;;12.20;99.90;;;;;;5015979;28;20720;-74
2021/05/22 08:08:08;;;;;;;5.03;1.10;;;12.40;99.90;;;;;;5022410;28;20486;-76
2021/05/22 08:10:35;;;;;;;2.15;0.45;;;12.50;99.90;;;;;;5002242;28;20097;-75
2021/05/22 08:13:00;;;;;;;2.00;0.50;;;12.70;99.90;;;;;;4991946;28;20153;-75
2021/05/22 08:15:26;;;;;;;1.88;0.55;;;12.70;99.90;;;;;;4989902;28;20442;-76
2021/05/22 08:17:52;;;;;;;2.15;0.77;;;12.80;99.90;;;;;;5010575;28;20269;-74
2021/05/22 08:20:18;;;;;;;5.82;1.23;;;12.80;99.90;;;;;;4989659;28;20078;-75
2021/05/22 08:22:48;;;;;;;1.75;0.40;;;12.80;99.90;;;;;;5006250;28;20081;-74
2021/05/22 08:25:15;;;;;;;4.13;0.50;;;12.80;99.90;;;;;;4990478;28;20078;-74
2021/05/22 08:27:41;;;;;;;1.95;0.32;;;12.90;99.90;;;;;;4990548;28;20170;-76
2021/05/22 08:30:12;;;;;;;3.35;0.52;;;12.90;99.90;;;;;;5003166;28;20531;-76
2021/05/22 08:32:37;;;;;;;4.03;0.50;;;13.10;99.90;;;;;;4990111;28;20098;-76
2021/05/22 08:35:05;;;;;;;1.73;0.60;;;13.10;99.90;;;;;;4989308;28;20110;-76
2021/05/22 08:37:31;;;;;;;2.10;0.75;;;13.30;99.90;;;;;;5015872;28;20075;-77
2021/05/22 08:39:56;;;;;;;2.38;0.77;;;13.40;99.90;;;;;;4992992;28;20103;-76
2021/05/22 08:42:28;;;;;;;4.05;0.55;;;13.50;99.90;;;;;;5001335;28;20209;-76
2021/05/22 08:45:03;;;;;;;1.83;0.50;;;13.40;99.90;;;;;;4989034;28;20078;-76
2021/05/22 08:47:29;;;;;;;2.33;0.43;;;13.30;99.90;;;;;;4990210;28;20672;-75
2021/05/22 08:49:55;;;;;;;1.52;0.60;;;13.40;99.90;;;;;;4997908;28;20124;-76
2021/05/22 08:52:22;;;;;;;2.53;0.73;;;13.40;99.90;;;;;;5006061;28;20158;-76
2021/05/22 08:54:48;;;;;;;2.35;0.90;;;13.30;99.90;;;;;;4989473;28;20085;-75
2021/05/22 08:57:14;;;;;;;3.67;0.98;;;13.10;99.90;;;;;;4989241;28;20486;-75
2021/05/22 08:59:43;;;;;;;2.95;0.50;;;13.00;99.90;;;;;;4993551;28;20165;-76
2021/05/22 09:02:11;;;;;;;4.65;0.70;;;13.30;99.90;;;;;;5006658;28;20598;-75
2021/05/22 09:05:12;;;;;;;3.53;0.90;;;13.60;99.90;;;;;;4990161;28;20629;-76
2021/05/22 09:07:41;;;;;;;5.50;0.60;;;13.70;99.90;;;;;;4935952;22;20202;-74
2021/05/22 09:10:19;;;;;;;2.17;0.77;;;13.90;99.90;;;;;;5010925;28;20081;-75
2021/05/22 09:12:48;;;;;;;2.33;0.50;;;14.00;99.90;;;;;;5049209;28;20576;-74
2021/05/22 09:15:34;;;;;;;1.50;0.43;;;13.80;99.90;;;;;;5023051;28;20073;-74
2021/05/22 09:18:11;;;;;;;2.60;0.57;;;13.60;99.90;;;;;;5028455;28;20180;-75
2021/05/22 09:20:38;;;;;;;2.67;0.43;;;13.50;99.90;;;;;;5026309;28;20062;-74
2021/05/22 09:23:11;;;;;;;2.42;0.45;;;13.40;99.90;;;;;;5028963;28;20147;-75
2021/05/22 09:25:45;;;;;;;3.90;0.95;;;13.40;99.90;;;;;;5005511;28;20565;-74
2021/05/22 09:28:12;;;;;;;3.15;0.40;;;13.50;99.90;;;;;;5028486;28;20092;-73
2021/05/22 09:30:41;;;;;;;1.67;0.50;;;13.60;99.90;;;;;;5022128;28;20089;-74
2021/05/22 09:33:25;;;;;;;5.10;0.70;;;13.50;99.90;;;;;;5028872;28;20073;-74
2021/05/22 09:36:13;;;;;;;4.80;0.70;;;13.40;99.90;;;;;;5010056;28;20101;-74
2021/05/22 09:38:45;;;;;;;2.67;0.45;;;13.30;99.90;;;;;;5009527;28;20097;-75
2021/05/22 09:41:28;;;;;;;3.40;0.52;;;13.40;99.90;;;;;;5009420;28;20158;-75
2021/05/22 09:44:04;;;;;;;2.60;0.63;;;13.60;99.90;;;;;;5011223;28;20086;-80
2021/05/22 09:46:30;;;;;;;4.65;0.60;;;13.60;99.90;;;;;;5023347;28;20089;-75
2021/05/22 09:49:06;;;;;;;2.38;0.55;;;13.90;99.90;;;;;;5022642;28;20517;-75
2021/05/22 09:51:32;;;;;;;3.03;0.50;;;14.10;99.90;;;;;;5029268;28;20103;-75
2021/05/22 09:53:57;;;;;;;3.60;0.47;;;14.40;99.90;;;;;;5012687;28;20144;-75
2021/05/22 09:56:27;;;;;;;2.53;0.40;;;14.50;99.90;;;;;;5020290;28;20082;-75
2021/05/22 09:58:57;;;;;;;3.45;0.68;;;14.80;99.90;;;;;;5015744;28;20110;-75
2021/05/22 10:01:25;;;;;;;4.15;0.63;;;14.80;99.90;;;;;;5010369;28;20538;-76
2021/05/22 10:03:51;;;;;;;2.63;0.70;;;14.50;99.90;;;;;;5012397;28;20107;-76
2021/05/22 10:06:17;;;;;;;1.98;0.43;;;14.50;99.90;;;;;;5017057;28;20105;-76
2021/05/22 10:08:43;;;;;;;4.68;0.52;;;14.50;99.90;;;;;;5022049;28;20098;-77
2021/05/22 10:11:09;;;;;;;4.70;0.60;;;14.90;99.90;;;;;;5019204;28;20070;-76
2021/05/22 10:13:41;;;;;;;2.05;0.50;;;14.90;99.90;;;;;;5021980;28;20070;-78
2021/05/22 10:16:07;;;;;;;2.05;0.70;;;15.00;99.90;;;;;;5017545;28;20085;-82
2021/05/22 10:18:33;;;;;;;0.98;0.47;;;15.20;99.90;;;;;;5015562;28;20100;-84
2021/05/22 10:21:01;;;;;;;1.58;0.43;;;15.10;99.90;;;;;;5006513;28;20178;-77
2021/05/22 10:23:27;;;;;;;2.20;0.35;;;15.00;99.90;;;;;;5025594;28;20070;-77
2021/05/22 10:25:55;;;;;;;2.00;0.52;;;14.70;99.90;;;;;;5019887;28;20086;-76
2021/05/22 10:28:22;;;;;;;0.68;0.20;;;14.60;99.90;;;;;;5025404;28;20177;-77
2021/05/22 10:30:48;;;;;;;2.05;0.35;;;14.90;99.90;;;;;;5029510;28;20152;-78
2021/05/22 10:33:15;;;;;;;3.47;0.52;;;15.00;99.90;;;;;;5016508;28;20630;-77
2021/05/22 10:35:50;;;;;;;3.15;0.68;;;15.20;99.90;;;;;;4999646;28;20089;-76
2021/05/22 10:38:34;;;;;;;1.00;0.30;;;15.10;99.90;;;;;;5019904;28;20093;-77
2021/05/22 10:41:07;;;;;;;3.35;0.57;;;15.20;99.90;;;;;;5012343;28;20108;-77
2021/05/22 10:43:42;;;;;;;3.42;0.50;;;15.20;99.90;;;;;;5013701;28;20157;-76
2021/05/22 10:46:07;;;;;;;;;;;15.20;99.90;;;;;;5013335;28;20089;-77
2021/05/22 10:48:34;;;;;;;2.13;0.47;;;15.10;99.90;;;;;;5013080;28;19970;-77
2021/05/22 10:50:59;;;;;;;1.38;0.30;;;15.00;99.90;;;;;;5016962;28;20070;-76
2021/05/22 10:53:33;;;;;;;2.83;0.57;;;15.00;99.90;;;;;;5015286;28;20734;-77
2021/05/22 10:56:13;;;;;;;3.10;0.70;;;15.40;99.90;;;;;;5012452;28;20084;-77
2021/05/22 10:58:59;;;;;;;3.55;0.52;;;15.50;99.90;;;;;;5022451;28;20094;-76
2021/05/22 11:01:35;;;;;;;3.28;0.93;;;15.70;99.90;;;;;;5012010;28;20120;-77
2021/05/22 11:04:07;;;;;;;4.07;0.63;;;15.80;99.90;;;;;;5019160;28;20078;-80
2021/05/22 11:06:42;;;;;;;1.67;0.50;;;15.80;99.90;;;;;;5013742;28;20134;-77
2021/05/22 11:09:29;;;;;;;2.47;0.70;;;15.80;99.90;;;;;;5030878;28;20471;-77
2021/05/22 11:12:02;;;;;;;2.70;0.65;;;15.60;99.90;;;;;;5029520;28;20088;-80
2021/05/22 11:14:36;;;;;;;2.58;0.82;;;15.80;99.90;;;;;;5023132;28;20078;-76
2021/05/22 11:17:23;;;;;;;0.65;0.30;;;15.50;99.90;;;;;;5015462;28;20079;-75
2021/05/22 11:20:01;;;;;;;1.33;0.50;;;15.00;99.90;;;;;;4994283;28;20090;-77
2021/05/22 11:22:29;;;;;;;1.10;0.28;;;14.90;99.90;;;;;;5020165;28;20085;-77
2021/05/22 11:25:06;;;;;;;1.30;0.50;;;15.40;99.90;;;;;;5020293;28;20089;-76
2021/05/22 11:28:02;;;;;;;3.90;0.70;;;15.80;99.90;;;;;;5017489;28;20461;-77
2021/05/22 11:30:31;;;;;;;0.88;0.38;;;15.50;99.90;;;;;;5027388;28;20071;-76
2021/05/22 11:33:01;;;;;;;3.03;0.50;;;15.50;99.90;;;;;;5021766;28;20116;-77
2021/05/22 11:35:27;;;;;;;1.40;0.30;;;15.70;99.90;;;;;;5015547;28;20133;-81
2021/05/22 11:37:54;;;;;;;2.28;0.70;;;15.60;99.90;;;;;;5025571;28;20082;-77
2021/05/22 11:40:35;;;;;;;1.50;0.35;;;15.70;99.90;;;;;;5013358;28;20441;-78
2021/05/22 11:43:22;;;;;;;1.33;0.32;;;15.70;99.90;;;;;;5009729;28;20070;-78
2021/05/22 11:45:49;;;;;;;2.38;0.40;;;15.50;99.10;;;;;;5025031;28;20624;-77
2021/05/22 11:48:31;;;;;;;2.30;0.57;;;15.90;99.90;;;;;;5008771;28;20151;-80
2021/05/22 11:50:56;;;;;;;3.05;0.45;;;15.90;99.90;;;;;;5022291;28;20071;-81
2021/05/22 11:53:23;;;;;;;2.08;0.40;;;16.00;99.90;;;;;;5022519;28;20584;-79
2021/05/22 11:55:57;;;;;;;0.90;0.30;;;16.10;99.90;;;;;;5024178;28;20082;-79
2021/05/22 11:58:22;;;;;;;3.20;0.50;;;16.20;99.90;;;;;;5009452;28;20087;-81
2021/05/22 12:00:48;;;;;;;2.45;0.75;;;16.10;98.40;;;;;;5026434;28;20113;-77
2021/05/22 12:03:28;;;;;;;1.33;0.35;;;16.00;98.10;;;;;;5022987;28;20093;-76
2021/05/22 12:05:57;;;;;;;1.58;0.22;;;15.80;99.30;;;;;;5001937;28;20200;-77
2021/05/22 12:08:27;;;;;;;4.47;1.20;;;16.00;97.50;;;;;;5024891;28;20156;-77
2021/05/22 12:10:52;;;;;;;1.27;0.30;;;16.20;99.90;;;;;;5017591;28;20070;-77
2021/05/22 12:13:18;;;;;;;0.50;0.30;;;16.10;98.40;;;;;;5007786;28;20701;-76
2021/05/22 12:15:44;;;;;;;2.97;0.65;;;16.00;99.20;;;;;;5013215;28;20147;-77
2021/05/22 12:18:14;;;;;;;4.43;0.65;;;16.10;99.90;;;;;;5026582;28;20097;-74
2021/05/22 12:20:53;;;;;;;2.50;0.40;;;16.50;99.70;;;;;;5024273;28;20097;-75
2021/05/22 12:23:36;;;;;;;1.95;0.30;;;16.70;98.20;;;;;;5022649;28;20082;-75
2021/05/22 12:26:03;;;;;;;2.70;0.63;;;16.50;97.00;;;;;;5005760;28;20153;-77
2021/05/22 12:28:29;;;;;;;0.93;0.22;;;16.40;97.70;;;;;;5009114;28;20596;-77
2021/05/22 12:30:59;;;;;;;1.38;0.30;;;16.60;98.70;;;;;;5030327;28;20145;-76
2021/05/22 12:33:26;;;;;;;4.43;0.47;;;16.60;97.40;;;;;;5028459;28;20093;-76
2021/05/22 12:36:21;;;;;;;2.13;0.30;;;16.60;97.00;;;;;;5024552;28;20165;-78
2021/05/22 12:38:47;;;;;;;1.38;0.45;;;16.50;96.30;;;;;;4989966;28;20102;-78
2021/05/22 12:41:14;;;;;;;9.38;0.88;;;16.60;97.10;;;;;;5022714;28;20128;-78
2021/05/22 12:43:44;;;;;;;4.65;0.60;;;16.50;96.10;;;;;;5010131;28;20557;-81
2021/05/22 12:46:33;;;;;;;2.85;0.40;;;16.50;93.10;;;;;;5009966;28;20094;-78
2021/05/22 12:49:13;;;;;;;2.25;0.22;;;16.80;95.70;;;;;;5023101;28;20604;-78
2021/05/22 12:51:41;;;;;;;0.95;0.20;;;16.80;95.90;;;;;;4993651;28;20541;-77
2021/05/22 12:54:37;;;;;;;0.77;0.25;;;16.70;92.40;;;;;;5014823;28;20082;-78
2021/05/22 12:57:14;;;;;;;1.10;0.30;;;16.80;96.00;;;;;;5001209;28;20430;-77
2021/05/22 12:59:41;;;;;;;2.17;0.40;;;16.90;96.60;;;;;;5019214;28;20118;-78
2021/05/22 13:02:22;;;;;;;0.90;0.20;;;17.00;95.60;;;;;;5015446;28;20071;-78
2021/05/22 13:04:52;;;;;;;1.75;0.40;;;17.10;96.30;;;;;;4993601;28;20078;-77